createdAt,value
2023-02-17T00:01:24.454Z,5.65
2023-02-17T00:03:53.266Z,6.43
2023-02-17T00:06:22.858Z,5.82
2023-02-17T00:08:50.336Z,6.55
2023-02-17T00:11:17.761Z,5.80
2023-02-17T00:13:44.634Z,6.10
2023-02-17T00:16:16.276Z,6.18
2023-02-17T00:18:43.198Z,5.85
2023-02-17T00:21:18.821Z,6.63
2023-02-17T00:23:46.866Z,6.47
2023-02-17T00:26:14.935Z,5.70
2023-02-17T00:28:42.208Z,6.60
2023-02-17T00:31:11.042Z,5.80
2023-02-17T00:33:38.290Z,6.80
2023-02-17T00:36:13.249Z,5.40
2023-02-17T00:38:40.324Z,6.40
2023-02-17T00:41:07.090Z,6.72
2023-02-17T00:43:33.969Z,6.20
2023-02-17T00:46:01.124Z,6.30
2023-02-17T00:48:28.026Z,6.78
2023-02-17T00:50:54.827Z,6.95
2023-02-17T00:53:21.665Z,5.95
2023-02-17T00:55:48.563Z,5.60
2023-02-17T00:58:15.496Z,7.38
2023-02-17T01:00:42.385Z,6.85
2023-02-17T01:03:09.273Z,6.63
2023-02-17T01:05:42.176Z,7.80
2023-02-17T01:08:09.906Z,6.28
2023-02-17T01:10:41.810Z,6.93
2023-02-17T01:13:09.204Z,6.38
2023-02-17T01:15:51.871Z,7.13
2023-02-17T01:18:20.954Z,6.30
2023-02-17T01:20:47.788Z,6.70
2023-02-17T01:23:15.218Z,7.22
2023-02-17T01:25:44.805Z,7.72
2023-02-17T01:28:16.257Z,6.72
2023-02-17T01:30:43.203Z,6.47
2023-02-17T01:33:10.408Z,6.60
2023-02-17T01:35:37.306Z,6.80
2023-02-17T01:38:04.109Z,6.68
2023-02-17T01:40:30.910Z,7.38
2023-02-17T01:42:57.767Z,6.63
2023-02-17T01:45:30.607Z,6.72
2023-02-17T01:48:03.440Z,6.30
2023-02-17T01:50:35.794Z,6.03
2023-02-17T01:53:06.678Z,6.30
2023-02-17T01:55:35.482Z,6.45
2023-02-17T01:58:04.556Z,6.97
2023-02-17T02:00:33.902Z,6.25
2023-02-17T02:03:02.395Z,6.15
2023-02-17T02:05:29.412Z,5.60
2023-02-17T02:07:57.013Z,5.97
2023-02-17T02:10:23.956Z,6.10
2023-02-17T02:12:50.749Z,6.20
2023-02-17T02:15:23.252Z,6.63
2023-02-17T02:17:58.994Z,6.57
2023-02-17T02:20:46.850Z,5.90
2023-02-17T02:23:19.426Z,5.95
2023-02-17T02:26:27.569Z,5.88
2023-02-17T02:29:15.634Z,6.40
2023-02-17T02:31:55.374Z,5.30
2023-02-17T02:34:29.949Z,6.22
2023-02-17T02:37:02.091Z,6.57
2023-02-17T02:39:35.106Z,5.80
2023-02-17T02:42:06.486Z,6.20
2023-02-17T02:44:33.358Z,6.47
2023-02-17T02:47:46.593Z,6.00
2023-02-17T02:50:21.276Z,5.72
2023-02-17T02:53:09.940Z,5.70
2023-02-17T02:55:48.462Z,5.78
2023-02-17T02:58:38.042Z,5.75
2023-02-17T03:01:14.370Z,5.80
2023-02-17T03:04:06.441Z,6.53
2023-02-17T03:06:52.787Z,5.45
2023-02-17T03:09:26.008Z,5.40
2023-02-17T03:11:55.585Z,5.90
2023-02-17T03:14:23.099Z,6.15
2023-02-17T03:16:52.039Z,6.20
2023-02-17T03:19:22.149Z,5.70
2023-02-17T03:21:55.922Z,5.85
2023-02-17T03:24:23.181Z,5.25
2023-02-17T03:26:50.029Z,5.47
2023-02-17T03:29:16.818Z,5.20
2023-02-17T03:31:43.818Z,5.10
2023-02-17T03:34:10.746Z,6.00
2023-02-17T03:36:37.564Z,5.25
2023-02-17T03:39:04.366Z,5.07
2023-02-17T03:41:31.252Z,5.82
2023-02-17T03:43:58.038Z,5.15
2023-02-17T03:46:24.840Z,5.32
2023-02-17T03:48:51.637Z,5.03
2023-02-17T03:51:21.012Z,4.63
2023-02-17T03:53:48.670Z,4.90
2023-02-17T03:56:16.559Z,4.97
2023-02-17T03:58:43.643Z,4.53
2023-02-17T04:01:12.802Z,4.40
2023-02-17T04:03:40.233Z,4.20
2023-02-17T04:06:08.709Z,4.43
2023-02-17T04:08:35.800Z,4.80
2023-02-17T04:11:04.639Z,4.00
2023-02-17T04:13:31.961Z,4.55
2023-02-17T04:16:01.368Z,4.10
2023-02-17T04:18:28.419Z,4.60
2023-02-17T04:20:55.337Z,4.10
2023-02-17T04:23:22.540Z,4.05
2023-02-17T04:25:49.406Z,3.80
2023-02-17T04:28:17.010Z,3.95
2023-02-17T04:30:47.939Z,3.97
2023-02-17T04:33:15.293Z,4.55
2023-02-17T04:35:42.869Z,4.95
2023-02-17T04:38:11.616Z,3.38
2023-02-17T04:40:40.064Z,4.15
2023-02-17T04:43:08.476Z,4.05
2023-02-17T04:45:36.936Z,4.00
2023-02-17T04:48:03.868Z,3.53
2023-02-17T04:50:30.771Z,4.05
2023-02-17T04:52:57.621Z,3.97
2023-02-17T04:55:24.464Z,4.05
2023-02-17T04:57:51.316Z,3.75
2023-02-17T05:00:18.409Z,4.20
2023-02-17T05:02:45.293Z,3.63
2023-02-17T05:05:15.329Z,3.70
2023-02-17T05:07:43.116Z,4.05
2023-02-17T05:10:10.569Z,3.58
2023-02-17T05:12:37.415Z,3.60
2023-02-17T05:15:05.169Z,3.90
2023-02-17T05:17:32.242Z,4.50
2023-02-17T05:19:59.128Z,4.40
2023-02-17T05:22:26.378Z,4.00
2023-02-17T05:24:53.272Z,3.85
2023-02-17T05:27:20.484Z,3.80
2023-02-17T05:29:47.366Z,4.03
2023-02-17T05:32:14.269Z,4.30
2023-02-17T05:34:41.109Z,4.00
2023-02-17T05:37:07.892Z,4.00
2023-02-17T05:39:34.804Z,4.00
2023-02-17T05:42:01.725Z,3.65
2023-02-17T05:44:28.611Z,4.10
2023-02-17T05:46:55.484Z,4.43
2023-02-17T05:49:22.270Z,4.00
2023-02-17T05:51:49.121Z,4.38
2023-02-17T05:54:15.964Z,4.07
2023-02-17T05:56:42.841Z,4.68
2023-02-17T05:59:09.675Z,4.10
2023-02-17T06:01:37.408Z,4.20
2023-02-17T06:04:05.256Z,4.25
2023-02-17T06:06:32.037Z,3.60
2023-02-17T06:08:58.928Z,3.25
2023-02-17T06:11:26.225Z,3.63
2023-02-17T06:13:53.083Z,3.60
2023-02-17T06:16:20.059Z,4.15
2023-02-17T06:18:46.885Z,3.58
2023-02-17T06:21:13.731Z,3.97
2023-02-17T06:23:40.564Z,3.83
2023-02-17T06:26:07.717Z,3.75
2023-02-17T06:28:35.203Z,4.00
2023-02-17T06:31:02.294Z,3.50
2023-02-17T06:33:29.373Z,3.70
2023-02-17T06:35:56.342Z,3.72
2023-02-17T06:38:23.247Z,3.75
2023-02-17T06:40:50.149Z,3.50
2023-02-17T06:43:16.968Z,4.00
2023-02-17T06:45:43.797Z,4.00
2023-02-17T06:48:10.723Z,3.60
2023-02-17T06:50:38.074Z,3.63
2023-02-17T06:53:05.211Z,3.80
2023-02-17T06:55:32.111Z,3.80
2023-02-17T06:57:59.048Z,3.35
2023-02-17T07:00:27.230Z,3.95
2023-02-17T07:02:56.769Z,3.50
2023-02-17T07:05:23.686Z,3.30
2023-02-17T07:07:53.209Z,3.75
2023-02-17T07:10:20.208Z,3.88
2023-02-17T07:12:47.140Z,3.50
2023-02-17T07:15:15.001Z,3.47
2023-02-17T07:17:41.843Z,3.03
2023-02-17T07:20:09.465Z,3.28
2023-02-17T07:22:36.243Z,3.50
2023-02-17T07:25:03.553Z,3.72
2023-02-17T07:27:31.695Z,3.63
2023-02-17T07:29:58.749Z,3.90
2023-02-17T07:32:25.576Z,4.00
2023-02-17T07:34:52.378Z,2.90
2023-02-17T07:37:21.829Z,2.87
2023-02-17T07:39:49.014Z,3.88
2023-02-17T07:42:15.924Z,3.70
2023-02-17T07:44:42.825Z,3.63
2023-02-17T07:47:09.773Z,3.80
2023-02-17T07:49:36.637Z,3.97
2023-02-17T07:52:05.303Z,3.63
2023-02-17T07:54:32.405Z,3.27
2023-02-17T07:56:59.599Z,3.10
2023-02-17T07:59:26.534Z,3.50
2023-02-17T08:01:53.405Z,3.23
2023-02-17T08:04:20.649Z,3.40
2023-02-17T08:06:47.543Z,3.50
2023-02-17T08:09:32.967Z,3.50
2023-02-17T08:12:18.536Z,3.27
2023-02-17T08:14:45.396Z,3.20
2023-02-17T08:17:12.241Z,3.63
2023-02-17T08:19:47.975Z,4.00
2023-02-17T08:22:17.346Z,3.60
2023-02-17T08:24:44.481Z,3.27
2023-02-17T08:27:11.442Z,3.40
2023-02-17T08:29:38.255Z,3.53
2023-02-17T08:32:05.194Z,3.40
2023-02-17T08:34:34.955Z,3.13
2023-02-17T08:37:03.625Z,3.90
2023-02-17T08:39:31.149Z,3.90
2023-02-17T08:41:57.984Z,3.00
2023-02-17T08:44:25.375Z,3.50
2023-02-17T08:46:52.766Z,3.90
2023-02-17T08:49:23.103Z,3.40
2023-02-17T08:51:50.928Z,3.17
2023-02-17T08:54:18.436Z,3.83
2023-02-17T08:56:45.752Z,4.13
2023-02-17T08:59:13.647Z,3.90
2023-02-17T09:01:41.216Z,3.50
2023-02-17T09:04:10.906Z,4.27
2023-02-17T09:06:37.792Z,3.77
2023-02-17T09:09:07.602Z,3.17
2023-02-17T09:11:34.881Z,4.00
2023-02-17T09:14:02.618Z,3.70
2023-02-17T09:16:29.598Z,3.83
2023-02-17T09:18:56.822Z,3.43
2023-02-17T09:21:23.937Z,3.07
2023-02-17T09:23:51.258Z,3.50
2023-02-17T09:26:19.024Z,3.53
2023-02-17T09:28:46.878Z,3.70
2023-02-17T09:31:22.474Z,3.60
2023-02-17T09:33:50.310Z,3.70
2023-02-17T09:36:20.525Z,3.13
2023-02-17T09:38:52.546Z,3.40
2023-02-17T09:41:22.291Z,3.83
2023-02-17T09:43:50.796Z,4.00
2023-02-17T09:46:37.476Z,3.60
2023-02-17T09:49:15.776Z,4.20
2023-02-17T09:51:47.307Z,4.20
2023-02-17T09:54:41.798Z,3.77
2023-02-17T09:57:15.807Z,3.80
2023-02-17T09:59:47.805Z,3.70
2023-02-17T10:02:31.798Z,3.40
2023-02-17T10:05:03.179Z,3.90
2023-02-17T10:07:36.917Z,3.60
2023-02-17T10:10:34.849Z,4.20
2023-02-17T10:13:04.444Z,3.37
2023-02-17T10:15:38.808Z,4.50
2023-02-17T10:18:18.777Z,2.63
2023-02-17T10:20:55.672Z,3.80
2023-02-17T10:23:25.166Z,3.20
2023-02-17T10:26:25.149Z,3.33
2023-02-17T10:28:54.016Z,3.17
2023-02-17T10:31:31.394Z,3.53
2023-02-17T10:34:03.946Z,3.90
2023-02-17T10:36:42.883Z,3.90
2023-02-17T10:39:14.678Z,3.30
2023-02-17T10:41:44.330Z,3.47
2023-02-17T10:44:20.083Z,3.17
2023-02-17T10:46:48.660Z,3.30
2023-02-17T10:49:29.839Z,3.00
2023-02-17T10:52:02.115Z,3.00
2023-02-17T10:54:39.542Z,3.00
2023-02-17T10:57:13.030Z,3.10
2023-02-17T10:59:42.983Z,3.33
2023-02-17T11:02:23.599Z,3.23
2023-02-17T11:04:54.964Z,2.60
2023-02-17T11:07:36.186Z,3.53
2023-02-17T11:10:20.821Z,2.43
2023-02-17T11:12:51.205Z,2.87
2023-02-17T11:15:20.302Z,3.27
2023-02-17T11:17:48.518Z,2.43
2023-02-17T11:20:15.458Z,2.40
2023-02-17T11:22:45.901Z,2.73
2023-02-17T11:25:34.896Z,2.73
2023-02-17T11:28:04.696Z,2.50
2023-02-17T11:30:34.889Z,3.03
2023-02-17T11:33:15.902Z,2.70
2023-02-17T11:35:46.554Z,2.67
2023-02-17T11:38:25.908Z,2.83
2023-02-17T11:40:59.045Z,2.50
2023-02-17T11:43:28.639Z,2.77
2023-02-17T11:46:00.764Z,2.60
2023-02-17T11:49:06.577Z,2.60
2023-02-17T11:51:48.697Z,2.40
2023-02-17T11:54:51.093Z,2.60
2023-02-17T11:57:40.835Z,2.70
2023-02-17T12:00:22.657Z,2.40
2023-02-17T12:03:01.232Z,2.17
2023-02-17T12:05:31.204Z,2.80
2023-02-17T12:08:22.159Z,2.80
2023-02-17T12:11:22.389Z,2.50
2023-02-17T12:14:02.712Z,2.93
2023-02-17T12:16:48.789Z,2.33
2023-02-17T12:19:37.223Z,2.70
2023-02-17T12:22:13.733Z,2.80
2023-02-17T12:25:04.299Z,3.07
2023-02-17T12:27:31.068Z,3.03
2023-02-17T12:30:12.918Z,2.53
2023-02-17T12:33:12.055Z,2.20
2023-02-17T12:35:53.040Z,3.10
2023-02-17T12:38:26.569Z,2.77
2023-02-17T12:41:05.872Z,2.67
2023-02-17T12:43:36.392Z,3.10
2023-02-17T12:46:09.745Z,2.60
2023-02-17T12:49:06.554Z,3.07
2023-02-17T12:51:57.393Z,2.43
2023-02-17T12:54:36.474Z,2.60
2023-02-17T12:57:15.083Z,2.70
2023-02-17T12:59:52.505Z,3.27
2023-02-17T13:02:20.804Z,2.90
2023-02-17T13:04:53.668Z,3.13
2023-02-17T13:07:36.131Z,2.57
2023-02-17T13:10:03.605Z,2.50
2023-02-17T13:12:34.894Z,2.63
2023-02-17T13:15:06.153Z,2.63
2023-02-17T13:17:32.936Z,2.10
2023-02-17T13:20:12.162Z,2.60
2023-02-17T13:22:40.558Z,2.63
2023-02-17T13:25:12.288Z,2.00
2023-02-17T13:27:40.099Z,2.50
2023-02-17T13:30:25.844Z,2.63
2023-02-17T13:33:04.470Z,2.57
2023-02-17T13:35:34.557Z,2.70
2023-02-17T13:38:01.509Z,2.67
2023-02-17T13:40:38.123Z,2.90
2023-02-17T13:43:16.490Z,2.80
2023-02-17T13:45:52.980Z,2.60
2023-02-17T13:48:31.062Z,2.17
2023-02-17T13:50:59.132Z,2.40
2023-02-17T13:53:39.408Z,2.50
2023-02-17T13:56:23.677Z,2.50
2023-02-17T13:58:50.672Z,2.40
2023-02-17T14:01:22.556Z,2.57
2023-02-17T14:03:51.840Z,2.80
2023-02-17T14:06:34.096Z,2.23
2023-02-17T14:09:00.922Z,2.97
2023-02-17T14:11:30.728Z,2.90
2023-02-17T14:13:59.884Z,2.57
2023-02-17T14:16:34.179Z,2.20
2023-02-17T14:19:06.057Z,2.60
2023-02-17T14:21:33.974Z,2.83
2023-02-17T14:24:01.264Z,2.50
2023-02-17T14:26:47.387Z,2.10
2023-02-17T14:29:15.112Z,2.43
2023-02-17T14:31:48.527Z,2.97
2023-02-17T14:34:21.258Z,2.37
2023-02-17T14:36:48.055Z,2.80
2023-02-17T14:39:16.012Z,2.50
2023-02-17T14:41:43.653Z,3.53
2023-02-17T14:44:10.566Z,2.63
2023-02-17T14:46:38.366Z,2.70
2023-02-17T14:49:05.206Z,2.60
2023-02-17T14:51:37.326Z,2.97
2023-02-17T14:54:14.838Z,2.87
2023-02-17T14:56:48.122Z,2.80
2023-02-17T14:59:14.912Z,2.70
2023-02-17T15:01:41.711Z,3.03
2023-02-17T15:04:08.646Z,2.67
2023-02-17T15:06:46.858Z,2.87
2023-02-17T15:09:16.735Z,3.37
2023-02-17T15:11:49.057Z,3.17
2023-02-17T15:14:18.654Z,3.17
2023-02-17T15:16:46.394Z,2.50
2023-02-17T15:19:18.190Z,2.90
2023-02-17T15:21:49.379Z,2.30
2023-02-17T15:24:23.489Z,2.23
2023-02-17T15:26:50.795Z,3.13
2023-02-17T15:29:19.697Z,2.43
2023-02-17T15:31:47.701Z,2.63
2023-02-17T15:34:17.237Z,2.70
2023-02-17T15:36:44.516Z,2.90
2023-02-17T15:39:17.448Z,2.60
2023-02-17T15:41:46.483Z,2.60
2023-02-17T15:44:17.618Z,2.67
2023-02-17T15:46:46.267Z,3.00
2023-02-17T15:49:13.701Z,2.70
2023-02-17T15:51:40.493Z,2.70
2023-02-17T15:54:07.332Z,2.80
2023-02-17T15:56:48.639Z,2.20
2023-02-17T15:59:21.458Z,2.43
2023-02-17T16:01:48.938Z,2.80
2023-02-17T16:04:15.935Z,3.00
2023-02-17T16:06:43.363Z,2.70
2023-02-17T16:09:10.767Z,2.40
2023-02-17T16:11:47.461Z,2.57
2023-02-17T16:14:28.416Z,2.90
2023-02-17T16:16:55.832Z,2.30
2023-02-17T16:19:22.687Z,2.57
2023-02-17T16:21:49.548Z,2.33
2023-02-17T16:24:16.334Z,2.60
2023-02-17T16:26:44.124Z,2.50
2023-02-17T16:29:19.625Z,2.77
2023-02-17T16:31:47.205Z,2.47
2023-02-17T16:34:24.543Z,2.67
2023-02-17T16:36:53.745Z,2.43
2023-02-17T16:39:21.341Z,2.60
2023-02-17T16:41:49.233Z,2.60
2023-02-17T16:44:17.688Z,2.53
2023-02-17T16:46:52.398Z,2.83
2023-02-17T16:49:25.872Z,1.97
2023-02-17T16:51:52.911Z,2.40
2023-02-17T16:54:19.973Z,2.95
2023-02-17T16:56:50.208Z,3.20
2023-02-17T16:59:20.424Z,2.53
2023-02-17T17:01:48.353Z,2.50
2023-02-17T17:04:15.985Z,2.58
2023-02-17T17:06:46.239Z,3.17
2023-02-17T17:09:21.243Z,2.57
2023-02-17T17:11:48.450Z,2.22
2023-02-17T17:14:15.830Z,2.53
2023-02-17T17:16:50.797Z,2.30
2023-02-17T17:19:18.232Z,2.30
2023-02-17T17:21:45.076Z,2.07
2023-02-17T17:24:11.945Z,2.45
2023-02-17T17:26:45.516Z,2.57
2023-02-17T17:29:14.391Z,2.83
2023-02-17T17:31:41.930Z,2.53
2023-02-17T17:34:08.858Z,2.70
2023-02-17T17:36:43.597Z,2.33
2023-02-17T17:39:22.264Z,2.80
2023-02-17T17:41:49.748Z,2.40
2023-02-17T17:44:16.844Z,2.80
2023-02-17T17:46:43.782Z,2.43
2023-02-17T17:49:13.760Z,2.90
2023-02-17T17:51:41.072Z,2.60
2023-02-17T17:54:09.058Z,2.23
2023-02-17T17:56:39.261Z,2.60
2023-02-17T17:59:06.558Z,2.70
2023-02-17T18:01:33.490Z,2.53
2023-02-17T18:04:00.770Z,2.83
2023-02-17T18:06:34.009Z,2.53
2023-02-17T18:09:04.511Z,2.90
2023-02-17T18:11:32.210Z,2.38
2023-02-17T18:14:02.653Z,3.00
2023-02-17T18:16:31.087Z,2.60
2023-02-17T18:19:00.988Z,2.72
2023-02-17T18:21:27.824Z,1.95
2023-02-17T18:23:54.598Z,2.42
2023-02-17T18:26:21.424Z,2.40
2023-02-17T18:28:48.244Z,2.05
2023-02-17T18:31:16.223Z,2.70
2023-02-17T18:33:43.379Z,2.55
2023-02-17T18:36:16.866Z,2.25
2023-02-17T18:38:44.781Z,2.05
2023-02-17T18:41:25.531Z,2.33
2023-02-17T18:43:53.178Z,2.35
2023-02-17T18:46:20.414Z,2.50
2023-02-17T18:48:47.293Z,2.70
2023-02-17T18:51:16.292Z,2.20
2023-02-17T18:53:43.310Z,2.75
2023-02-17T18:56:13.346Z,2.10
2023-02-17T18:58:40.984Z,2.42
2023-02-17T19:01:14.452Z,2.05
2023-02-17T19:03:41.471Z,2.40
2023-02-17T19:06:12.895Z,2.40
2023-02-17T19:08:40.817Z,2.40
2023-02-17T19:11:08.255Z,2.33
2023-02-17T19:13:36.064Z,2.40
2023-02-17T19:16:07.970Z,2.17
2023-02-17T19:18:35.037Z,2.45
2023-02-17T19:21:02.018Z,2.20
2023-02-17T19:23:29.262Z,2.53
2023-02-17T19:25:56.217Z,1.88
2023-02-17T19:28:23.372Z,2.35
2023-02-17T19:30:50.188Z,2.40
2023-02-17T19:33:16.986Z,2.40
2023-02-17T19:35:44.965Z,2.10
2023-02-17T19:38:11.771Z,2.60
2023-02-17T19:40:38.677Z,2.70
2023-02-17T19:43:06.045Z,2.15
2023-02-17T19:45:33.008Z,1.85
2023-02-17T19:47:59.869Z,2.28
2023-02-17T19:50:26.677Z,1.98
2023-02-17T19:52:53.511Z,2.70
2023-02-17T19:55:21.375Z,2.30
2023-02-17T19:57:51.145Z,2.20
2023-02-17T20:00:18.191Z,2.30
2023-02-17T20:02:45.120Z,1.90
2023-02-17T20:05:12.036Z,2.60
2023-02-17T20:07:38.947Z,1.90
2023-02-17T20:10:10.711Z,2.70
2023-02-17T20:12:38.085Z,2.30
2023-02-17T20:15:05.393Z,2.70
2023-02-17T20:17:32.339Z,1.98
2023-02-17T20:19:59.634Z,1.97
2023-02-17T20:22:26.623Z,1.95
2023-02-17T20:24:53.550Z,2.40
2023-02-17T20:27:20.370Z,2.40
2023-02-17T20:29:47.234Z,2.78
2023-02-17T20:32:14.327Z,2.47
2023-02-17T20:34:41.269Z,2.08
2023-02-17T20:37:08.629Z,2.60
2023-02-17T20:39:36.421Z,2.40
2023-02-17T20:42:04.021Z,2.33
2023-02-17T20:44:30.992Z,2.17
2023-02-17T20:46:58.291Z,2.55
2023-02-17T20:49:26.248Z,2.40
2023-02-17T20:51:53.076Z,2.53
2023-02-17T20:54:19.931Z,2.60
2023-02-17T20:56:47.612Z,2.58
2023-02-17T20:59:15.391Z,2.70
2023-02-17T21:01:42.656Z,2.70
2023-02-17T21:04:10.546Z,2.80
2023-02-17T21:06:43.012Z,2.87
2023-02-17T21:09:15.295Z,2.55
2023-02-17T21:11:42.791Z,2.93
2023-02-17T21:14:09.871Z,3.03
2023-02-17T21:16:36.720Z,2.60
2023-02-17T21:19:04.073Z,2.70
2023-02-17T21:21:31.870Z,2.80
2023-02-17T21:23:59.536Z,2.23
2023-02-17T21:26:26.505Z,2.87
2023-02-17T21:28:54.334Z,2.53
2023-02-17T21:31:21.348Z,2.40
2023-02-17T21:33:48.428Z,2.60
2023-02-17T21:36:17.401Z,3.15
2023-02-17T21:38:44.423Z,2.90
2023-02-17T21:41:19.865Z,2.90
2023-02-17T21:44:05.743Z,2.97
2023-02-17T21:46:33.583Z,3.00
2023-02-17T21:49:01.757Z,2.40
2023-02-17T21:51:29.086Z,2.95
2023-02-17T21:53:56.365Z,2.60
2023-02-17T21:56:23.849Z,3.30
2023-02-17T21:58:52.489Z,2.40
2023-02-17T22:01:20.482Z,2.63
2023-02-17T22:03:47.287Z,2.53
2023-02-17T22:06:25.912Z,3.30
2023-02-17T22:08:52.999Z,1.90
2023-02-17T22:11:28.915Z,2.15
2023-02-17T22:13:58.174Z,2.50
2023-02-17T22:16:26.180Z,2.80
2023-02-17T22:18:53.032Z,2.60
2023-02-17T22:21:20.002Z,2.87
2023-02-17T22:23:47.078Z,2.67
2023-02-17T22:26:20.070Z,2.40
2023-02-17T22:28:47.108Z,2.70
2023-02-17T22:31:15.984Z,2.60
2023-02-17T22:33:43.600Z,2.70
2023-02-17T22:36:13.926Z,2.73
2023-02-17T22:38:41.041Z,2.50
2023-02-17T22:41:10.068Z,2.42
2023-02-17T22:43:40.158Z,2.73
2023-02-17T22:46:08.510Z,3.08
2023-02-17T22:48:37.680Z,2.57
2023-02-17T22:51:13.349Z,2.90
2023-02-17T22:53:40.725Z,3.10
2023-02-17T22:56:09.302Z,2.80
2023-02-17T22:58:36.755Z,3.00
2023-02-17T23:01:08.177Z,3.27
2023-02-17T23:03:35.709Z,3.40
2023-02-17T23:06:05.353Z,3.30
2023-02-17T23:08:32.882Z,3.00
2023-02-17T23:11:03.343Z,2.88
2023-02-17T23:13:30.122Z,3.40
2023-02-17T23:15:56.948Z,2.80
2023-02-17T23:18:23.974Z,3.50
2023-02-17T23:20:55.040Z,2.90
2023-02-17T23:23:22.035Z,3.10
2023-02-17T23:25:51.430Z,3.23
2023-02-17T23:28:20.277Z,2.80
2023-02-17T23:30:48.132Z,2.70
2023-02-17T23:33:16.492Z,2.97
2023-02-17T23:35:47.911Z,3.78
2023-02-17T23:38:18.175Z,3.28
2023-02-17T23:40:51.593Z,3.17
2023-02-17T23:43:19.382Z,3.20
2023-02-17T23:45:46.252Z,2.60
2023-02-17T23:48:13.744Z,3.20
2023-02-17T23:50:40.898Z,3.05
2023-02-17T23:53:08.216Z,3.00
2023-02-17T23:55:35.002Z,2.90
2023-02-17T23:58:02.000Z,3.20
